Time;durP1;ratioP1;P1;durP2;ratioP2;P2;SDS_P1;SDS_P2;PMS_P1;PMS_P2;Temp;Humidity;BMP_temperature;BMP_pressure;BME280_temperature;BME280_humidity;BME280_pressure;Samples;Min_cycle;Max_cycle;Signal;HPM_P1;HPM_P2
2022/05/09 00:00:11;;;;;;;8.05;2.47;;;;;;;19.47;47.44;97065.91;5012163;28;20362;-29
2022/05/09 00:02:37;;;;;;;7.40;2.80;;;;;;;19.49;47.49;97059.97;5007823;28;20030;-29
2022/05/09 00:05:03;;;;;;;6.55;3.25;;;;;;;19.51;47.39;97050.00;5013930;28;20381;-31
2022/05/09 00:07:29;;;;;;;4.55;2.60;;;;;;;19.47;47.51;97049.38;5014087;28;20117;-31
2022/05/09 00:09:55;;;;;;;10.52;3.35;;;;;;;19.46;47.44;97047.88;5013890;28;20104;-30
2022/05/09 00:12:20;;;;;;;7.45;3.33;;;;;;;19.34;47.51;97051.63;5013824;28;20084;-30
2022/05/09 00:14:46;;;;;;;7.60;2.70;;;;;;;19.40;47.37;97052.50;5013580;28;20030;-30
2022/05/09 00:17:11;;;;;;;7.10;3.30;;;;;;;19.41;47.50;97053.28;5013994;28;20476;-30
2022/05/09 00:19:37;;;;;;;7.55;3.42;;;;;;;19.46;47.24;97053.38;5028839;28;20025;-29
2022/05/09 00:22:02;;;;;;;5.78;2.88;;;;;;;19.45;47.25;97056.59;5013850;28;20049;-32
2022/05/09 00:24:29;;;;;;;5.05;2.70;;;;;;;19.41;47.38;97053.28;5013701;28;20017;-30
2022/05/09 00:26:55;;;;;;;7.25;3.00;;;;;;;19.47;47.07;97049.38;5013636;28;20026;-29
2022/05/09 00:29:22;;;;;;;6.13;3.42;;;;;;;19.39;47.50;97042.75;5013641;28;20055;-30
2022/05/09 00:31:50;;;;;;;5.63;3.08;;;;;;;19.46;47.29;97045.13;5013798;28;20026;-29
2022/05/09 00:34:17;;;;;;;7.32;2.53;;;;;;;19.39;47.33;97045.50;5013520;28;20026;-30
2022/05/09 00:36:44;;;;;;;8.27;3.13;;;;;;;19.41;47.37;97045.75;5013574;28;20550;-30
2022/05/09 00:39:11;;;;;;;5.82;2.80;;;;;;;19.37;47.16;97039.69;5013431;28;20465;-30
2022/05/09 00:41:40;;;;;;;5.63;3.45;;;;;;;19.41;47.14;97045.03;5013615;28;20029;-30
2022/05/09 00:44:09;;;;;;;4.70;2.85;;;;;;;19.36;47.34;97043.66;5013561;28;20022;-30
2022/05/09 00:46:38;;;;;;;8.77;2.88;;;;;;;19.36;47.28;97052.69;5013473;28;20491;-30
2022/05/09 00:49:22;;;;;;;5.88;2.97;;;;;;;19.31;47.47;97047.06;5013275;28;20046;-29
2022/05/09 00:52:00;;;;;;;6.57;2.70;;;;;;;19.42;47.33;97050.03;5013436;28;20022;-30
2022/05/09 00:54:30;;;;;;;7.10;3.13;;;;;;;19.33;47.51;97052.84;5013200;28;20033;-30
2022/05/09 00:57:02;;;;;;;6.30;3.30;;;;;;;19.39;47.22;97048.25;5013540;28;20412;-30
2022/05/09 00:59:32;;;;;;;6.75;3.22;;;;;;;19.40;47.23;97047.00;5014809;28;20392;-29
2022/05/09 01:01:57;;;;;;;6.80;3.08;;;;;;;19.32;47.30;97049.34;5017456;28;20037;-29
2022/05/09 01:04:26;;;;;;;6.40;2.90;;;;;;;19.36;47.35;97049.19;5017314;28;20105;-30
2022/05/09 01:06:53;;;;;;;4.35;2.40;;;;;;;19.28;47.50;97056.28;5017295;28;20022;-31
2022/05/09 01:09:19;;;;;;;5.68;2.90;;;;;;;19.33;47.27;97044.59;5017110;28;20033;-31
2022/05/09 01:11:46;;;;;;;5.03;2.90;;;;;;;19.42;47.08;97046.53;5017173;28;20464;-29
2022/05/09 01:14:18;;;;;;;4.05;3.08;;;;;;;19.44;46.98;97049.56;5017231;28;20097;-30
2022/05/09 01:16:46;;;;;;;5.53;2.72;;;;;;;19.40;47.19;97047.00;5017250;28;20029;-30
2022/05/09 01:19:28;;;;;;;6.43;3.15;;;;;;;19.40;46.94;97049.75;5017212;28;20017;-30
2022/05/09 01:21:53;;;;;;;5.53;2.97;;;;;;;19.41;47.15;97045.75;5016796;28;20030;-29
2022/05/09 01:24:22;;;;;;;6.85;3.10;;;;;;;19.33;47.10;97045.38;5017320;28;20033;-30
2022/05/09 01:26:48;;;;;;;8.15;3.53;;;;;;;19.30;47.17;97049.03;5016719;28;20117;-30
2022/05/09 01:29:26;;;;;;;7.15;2.80;;;;;;;19.38;46.95;97044.72;5016775;28;20022;-29
2022/05/09 01:31:54;;;;;;;6.22;2.92;;;;;;;19.35;46.83;97051.16;5016899;28;20026;-29
2022/05/09 01:34:19;;;;;;;5.05;2.63;;;;;;;19.37;46.90;97047.94;5016620;28;20034;-30
2022/05/09 01:36:51;;;;;;;3.85;3.25;;;;;;;19.34;46.86;97046.88;5016697;28;20022;-30
2022/05/09 01:39:17;;;;;;;5.55;3.00;;;;;;;19.42;46.62;97047.28;5031854;28;20056;-31
2022/05/09 01:41:45;;;;;;;5.85;2.95;;;;;;;19.29;47.21;97052.25;5016798;28;20032;-30
2022/05/09 01:44:13;;;;;;;6.40;3.58;;;;;;;19.33;47.00;97055.59;5016550;28;20491;-29
2022/05/09 01:49:32;;;;;;;6.38;2.78;;;;;;;19.31;46.71;97047.06;5016499;28;20463;-29
2022/05/09 01:52:05;;;;;;;5.43;2.65;;;;;;;19.34;46.92;97055.13;5016435;28;20026;-31
2022/05/09 01:54:30;;;;;;;;;;;;;;;19.37;46.64;97059.72;5016756;28;20062;-30
2022/05/09 01:56:56;;;;;;;7.70;3.28;;;;;;;19.33;46.79;97050.88;5016315;28;20327;-29
2022/05/09 01:59:22;;;;;;;7.15;4.70;;;;;;;19.32;47.04;97060.34;5016176;28;20026;-30
2022/05/09 02:01:53;;;;;;;8.23;3.05;;;;;;;19.37;46.89;97053.44;5014972;28;20722;-30
2022/05/09 02:04:19;;;;;;;6.68;2.65;;;;;;;19.35;46.81;97058.66;4996597;28;20507;-30
2022/05/09 02:06:44;;;;;;;7.28;2.85;;;;;;;19.41;46.74;97056.03;5008224;28;20022;-30
2022/05/09 02:09:11;;;;;;;7.13;2.88;;;;;;;19.39;46.71;97062.00;5016186;28;20021;-29
2022/05/09 02:11:36;;;;;;;6.05;2.88;;;;;;;19.43;46.68;97065.31;5013953;28;20084;-29
2022/05/09 02:14:02;;;;;;;5.82;3.03;;;;;;;19.39;46.55;97062.00;5015954;28;20033;-31
2022/05/09 02:16:28;;;;;;;6.57;3.00;;;;;;;19.42;46.54;97057.53;5015836;28;20026;-29
2022/05/09 02:18:54;;;;;;;6.13;2.45;;;;;;;19.36;46.68;97054.66;5015861;28;20018;-30
2022/05/09 02:21:19;;;;;;;8.48;2.80;;;;;;;19.23;46.83;97054.91;5015854;28;20030;-29
2022/05/09 02:23:45;;;;;;;6.53;2.97;;;;;;;19.25;46.90;97059.94;5015867;28;20030;-29
2022/05/09 02:26:11;;;;;;;8.00;3.28;;;;;;;19.29;46.88;97060.50;5015736;28;20046;-30
2022/05/09 02:28:37;;;;;;;4.88;2.55;;;;;;;19.23;46.87;97059.66;5015868;28;20037;-29
2022/05/09 02:31:03;;;;;;;4.95;2.65;;;;;;;19.12;47.29;97049.19;5015707;28;20468;-29
2022/05/09 02:33:28;;;;;;;7.20;3.10;;;;;;;19.20;47.03;97050.34;5015889;28;20095;-29
2022/05/09 02:35:54;;;;;;;5.20;3.13;;;;;;;19.09;47.31;97058.34;5015598;28;20472;-30
2022/05/09 02:38:20;;;;;;;6.35;3.35;;;;;;;18.99;47.53;97057.66;5030668;28;20029;-31
2022/05/09 02:40:46;;;;;;;6.18;2.92;;;;;;;19.15;46.99;97061.25;5015487;28;20080;-29
2022/05/09 02:43:12;;;;;;;5.70;2.92;;;;;;;19.23;47.00;97065.16;5015450;28;20030;-30
2022/05/09 02:45:39;;;;;;;9.23;2.90;;;;;;;19.25;46.81;97066.22;5015390;28;20021;-30
2022/05/09 02:48:05;;;;;;;4.85;2.60;;;;;;;19.24;46.75;97066.69;5015351;28;20030;-30
2022/05/09 02:50:30;;;;;;;7.38;2.97;;;;;;;19.31;46.71;97061.56;5015386;28;20049;-30
2022/05/09 02:52:56;;;;;;;5.68;2.72;;;;;;;18.98;47.42;97069.13;5015285;28;20076;-29
2022/05/09 02:55:22;;;;;;;6.88;3.00;;;;;;;19.14;47.26;97060.47;5015573;28;20026;-29
2022/05/09 02:57:49;;;;;;;6.50;3.13;;;;;;;19.19;46.99;97068.06;5030447;28;20045;-30
2022/05/09 03:00:18;;;;;;;5.50;2.92;;;;;;;19.12;46.99;97062.94;5014967;28;20087;-32
2022/05/09 03:04:38;;;;;;;4.70;2.78;;;;;;;19.24;46.68;97066.69;5015013;28;20425;-30
2022/05/09 03:05:31;;;;;;;5.15;2.80;;;;;;;19.14;46.91;97070.72;5015072;28;20030;-30
2022/05/09 03:07:56;;;;;;;8.35;3.25;;;;;;;19.14;47.03;97067.97;5030069;28;20036;-30
2022/05/09 03:10:23;;;;;;;5.78;2.85;;;;;;;19.24;46.76;97058.41;5015035;28;20470;-30
2022/05/09 03:12:49;;;;;;;6.60;3.40;;;;;;;19.12;46.92;97062.94;5014857;28;20036;-30
2022/05/09 03:15:16;;;;;;;6.50;2.58;;;;;;;19.21;46.77;97064.84;5014772;28;20026;-29
2022/05/09 03:17:41;;;;;;;6.68;3.00;;;;;;;19.28;46.46;97062.53;5014702;28;20037;-30
2022/05/09 03:20:07;;;;;;;6.05;3.70;;;;;;;19.24;46.62;97066.69;5014813;28;20018;-29
2022/05/09 03:22:33;;;;;;;4.63;2.40;;;;;;;19.28;46.40;97059.03;5014551;28;20032;-30
2022/05/09 03:24:59;;;;;;;5.32;3.08;;;;;;;19.25;46.50;97065.44;5014592;28;20033;-30
2022/05/09 03:27:24;;;;;;;7.38;3.20;;;;;;;19.35;46.41;97075.16;5014597;28;20392;-30
2022/05/09 03:29:50;;;;;;;10.13;3.72;;;;;;;19.18;46.64;97066.53;5014744;28;20032;-30
2022/05/09 03:32:15;;;;;;;4.97;2.90;;;;;;;19.22;46.52;97066.38;5014684;28;20030;-29
2022/05/09 03:34:41;;;;;;;4.88;2.65;;;;;;;19.21;46.56;97073.09;5014215;28;20427;-30
2022/05/09 03:37:06;;;;;;;7.38;3.20;;;;;;;19.30;46.46;97067.53;5014608;28;20021;-30
2022/05/09 03:39:32;;;;;;;7.20;3.10;;;;;;;19.32;46.36;97067.84;5014327;28;20060;-29
2022/05/09 03:41:57;;;;;;;6.70;2.78;;;;;;;19.32;46.30;97065.84;5014531;28;20030;-30
2022/05/09 03:44:23;;;;;;;6.38;2.80;;;;;;;19.29;46.40;97066.78;5014618;28;20080;-29
2022/05/09 03:46:48;;;;;;;5.18;2.88;;;;;;;19.24;46.49;97069.44;5014434;28;20440;-30
2022/05/09 03:49:14;;;;;;;6.32;2.92;;;;;;;19.35;46.24;97072.41;5014259;28;20049;-29
2022/05/09 03:51:39;;;;;;;4.45;2.58;;;;;;;19.31;46.40;97069.06;5014245;28;20480;-30
2022/05/09 03:54:05;;;;;;;6.90;2.90;;;;;;;19.23;46.48;97076.91;5014220;28;20026;-29
2022/05/09 03:56:30;;;;;;;6.45;2.75;;;;;;;19.25;46.49;97070.94;5014139;28;20026;-29
2022/05/09 03:58:56;;;;;;;6.50;3.45;;;;;;;19.20;46.45;97069.59;5014144;28;20025;-29
2022/05/09 04:01:21;;;;;;;6.07;2.95;;;;;;;19.21;46.37;97071.13;5014133;28;20085;-29
2022/05/09 04:03:48;;;;;;;6.05;2.67;;;;;;;19.23;46.58;97073.41;5013973;28;20356;-29
2022/05/09 04:06:13;;;;;;;4.72;2.88;;;;;;;19.17;46.53;97065.03;5013947;28;20391;-30
2022/05/09 04:08:39;;;;;;;4.47;2.88;;;;;;;19.16;46.59;97065.50;5013864;28;20026;-29
2022/05/09 04:11:04;;;;;;;6.05;3.05;;;;;;;19.00;47.05;97066.66;5013799;28;20538;-29
2022/05/09 04:13:30;;;;;;;9.48;3.28;;;;;;;18.97;46.91;97082.09;5014198;28;20048;-30
2022/05/09 04:18:42;;;;;;;7.32;3.08;;;;;;;19.23;46.48;97076.16;5013808;28;20124;-30
2022/05/09 04:21:10;;;;;;;6.70;3.45;;;;;;;19.24;46.39;97072.94;5014276;28;20018;-29
2022/05/09 04:23:37;;;;;;;7.10;3.03;;;;;;;19.29;46.29;97082.50;5013910;28;20691;-29
2022/05/09 04:26:04;;;;;;;7.95;3.20;;;;;;;19.20;46.36;97090.81;5013629;28;20049;-30
2022/05/09 04:28:31;;;;;;;7.65;3.28;;;;;;;19.06;46.66;97080.50;5013505;28;20026;-30
2022/05/09 04:30:57;;;;;;;4.40;2.95;;;;;;;19.17;46.46;97086.25;5013614;28;20032;-30
2022/05/09 04:33:22;;;;;;;9.38;3.05;;;;;;;19.21;46.35;97087.63;5013753;28;20028;-29
2022/05/09 04:35:48;;;;;;;6.72;2.95;;;;;;;19.19;46.53;97090.06;5013421;28;20388;-30
2022/05/09 04:38:23;;;;;;;5.85;3.47;;;;;;;19.20;46.30;97093.56;5013452;28;20026;-30
2022/05/09 04:40:54;;;;;;;9.15;2.90;;;;;;;19.25;46.24;97098.44;5013613;28;20112;-30
2022/05/09 04:43:23;;;;;;;5.45;2.97;;;;;;;19.05;46.84;97096.25;5013532;28;20044;-29
2022/05/09 04:45:48;;;;;;;7.47;3.13;;;;;;;19.18;46.45;97096.78;5013611;28;20022;-29
2022/05/09 04:48:22;;;;;;;4.65;2.60;;;;;;;19.19;46.36;97100.31;5013550;28;20022;-29
2022/05/09 04:50:48;;;;;;;4.68;2.97;;;;;;;19.14;46.62;97111.97;5013916;28;20042;-30
2022/05/09 04:53:13;;;;;;;5.20;2.70;;;;;;;19.18;46.41;97104.28;5013376;28;20025;-29
2022/05/09 04:55:40;;;;;;;6.78;3.25;;;;;;;19.18;46.37;97107.03;4998931;28;20037;-30
2022/05/09 04:58:06;;;;;;;7.32;2.67;;;;;;;19.24;46.36;97116.16;4991874;28;20112;-30
2022/05/09 05:00:32;;;;;;;6.40;3.33;;;;;;;19.15;46.58;97113.47;4991833;28;20501;-29
2022/05/09 05:02:58;;;;;;;7.00;2.95;;;;;;;19.21;46.25;97126.09;4991878;28;20038;-29
2022/05/09 05:05:25;;;;;;;5.63;2.75;;;;;;;19.16;46.46;97117.75;4991865;28;20029;-29
2022/05/09 05:07:52;;;;;;;9.27;2.72;;;;;;;19.23;46.38;97115.41;4991309;28;20161;-29
2022/05/09 05:10:18;;;;;;;5.05;2.90;;;;;;;19.17;46.45;97120.00;4990141;28;20034;-30
2022/05/09 05:12:44;;;;;;;6.20;3.13;;;;;;;19.22;46.31;97115.88;4991528;28;20030;-30
2022/05/09 05:15:11;;;;;;;5.60;3.05;;;;;;;19.16;46.43;97118.50;4991648;28;20026;-30
2022/05/09 05:17:37;;;;;;;4.57;2.40;;;;;;;19.20;46.50;97116.34;4991259;28;20434;-30
2022/05/09 05:20:04;;;;;;;4.10;2.58;;;;;;;19.20;46.49;97118.31;4991468;28;20547;-30
2022/05/09 05:22:34;;;;;;;6.82;3.05;;;;;;;19.11;46.68;97132.13;4991623;28;20034;-30
2022/05/09 05:25:00;;;;;;;5.53;2.60;;;;;;;19.20;46.60;97121.06;4991622;28;20035;-29
2022/05/09 05:27:25;;;;;;;7.43;2.85;;;;;;;19.19;46.43;97125.81;5003215;28;20038;-29
2022/05/09 05:29:55;;;;;;;6.22;2.97;;;;;;;19.16;46.64;97123.25;5011147;28;20026;-29
2022/05/09 05:32:26;;;;;;;6.10;3.05;;;;;;;19.18;46.54;97127.03;5010786;28;20546;-30
2022/05/09 05:34:52;;;;;;;5.85;2.88;;;;;;;19.11;46.78;97132.88;5010997;28;20026;-29
2022/05/09 05:37:18;;;;;;;9.15;3.83;;;;;;;19.19;46.82;97122.28;5010711;28;20037;-30
2022/05/09 05:39:45;;;;;;;5.53;3.58;;;;;;;19.20;46.78;97132.06;5011347;28;20034;-29
2022/05/09 05:42:11;;;;;;;6.20;3.83;;;;;;;19.10;47.03;97136.09;5010961;28;20384;-30
2022/05/09 05:44:37;;;;;;;7.82;3.65;;;;;;;19.16;46.68;97143.25;5011154;28;20057;-30
2022/05/09 05:47:07;;;;;;;6.60;3.78;;;;;;;19.20;46.83;97143.06;5013120;28;20480;-29
2022/05/09 05:49:34;;;;;;;8.02;3.55;;;;;;;19.13;46.86;97129.69;5014385;28;20451;-29
2022/05/09 05:52:03;;;;;;;6.47;3.65;;;;;;;19.24;46.74;97146.41;5014382;28;20050;-29
2022/05/09 05:54:30;;;;;;;5.20;3.30;;;;;;;19.14;46.99;97136.69;5014023;28;20026;-31
2022/05/09 05:56:56;;;;;;;10.68;4.43;;;;;;;19.13;47.08;97143.41;5014309;28;20549;-30
2022/05/09 05:59:23;;;;;;;4.90;3.30;;;;;;;19.06;47.25;97143.75;5014139;28;20088;-30
2022/05/09 06:01:49;;;;;;;8.48;4.13;;;;;;;19.16;47.13;97151.50;5014261;28;20484;-30
2022/05/09 06:04:14;;;;;;;6.68;3.67;;;;;;;19.19;46.86;97147.03;5014340;28;20400;-30
2022/05/09 06:06:39;;;;;;;6.65;3.47;;;;;;;19.17;47.14;97157.75;5011057;28;20022;-30
2022/05/09 06:09:05;;;;;;;6.78;3.95;;;;;;;18.99;47.33;97150.34;5044303;28;20052;-30
2022/05/09 06:11:31;;;;;;;9.93;3.63;;;;;;;19.10;47.30;97150.59;5014019;28;20108;-30
2022/05/09 06:13:57;;;;;;;8.68;3.53;;;;;;;18.99;47.58;97158.59;5014083;28;20029;-29
2022/05/09 06:16:22;;;;;;;8.43;3.97;;;;;;;19.05;47.53;97161.47;5013915;28;20026;-29
2022/05/09 06:18:52;;;;;;;6.90;3.58;;;;;;;19.06;47.61;97163.00;5013751;28;20113;-30
2022/05/09 06:21:18;;;;;;;5.18;3.50;;;;;;;19.15;47.21;97169.22;5013843;28;20686;-29
2022/05/09 06:23:43;;;;;;;8.65;3.53;;;;;;;18.98;47.96;97170.81;5045734;28;20026;-31
2022/05/09 06:26:09;;;;;;;8.02;3.92;;;;;;;18.99;47.81;97181.34;5013753;28;20030;-29
2022/05/09 06:28:36;;;;;;;8.98;4.05;;;;;;;18.89;48.13;97182.63;5045255;28;20022;-30
2022/05/09 06:31:02;;;;;;;8.85;3.78;;;;;;;18.89;47.81;97190.88;5013537;28;20030;-30
2022/05/09 06:33:27;;;;;;;7.47;3.70;;;;;;;18.93;47.88;97188.69;5013882;28;20043;-30
2022/05/09 06:35:53;;;;;;;11.98;4.15;;;;;;;19.10;47.61;97191.09;5013760;28;20038;-30
2022/05/09 06:38:22;;;;;;;5.15;3.30;;;;;;;19.06;47.60;97184.97;5013760;28;20092;-30
2022/05/09 06:40:48;;;;;;;6.13;3.35;;;;;;;18.89;47.98;97188.13;5013650;28;20038;-32
2022/05/09 06:43:14;;;;;;;11.90;4.40;;;;;;;19.08;47.69;97182.53;5013213;28;20084;-31
2022/05/09 06:45:40;;;;;;;6.22;3.35;;;;;;;18.97;47.88;97185.78;5013563;28;20025;-30
2022/05/09 06:48:08;;;;;;;8.35;3.47;;;;;;;19.06;47.66;97180.25;5012668;28;20026;-30
2022/05/09 06:50:35;;;;;;;8.45;4.28;;;;;;;19.09;47.59;97182.06;5012970;28;20045;-30
2022/05/09 06:53:02;;;;;;;6.07;3.45;;;;;;;18.88;48.10;97186.59;5013225;28;20123;-31
2022/05/09 06:55:28;;;;;;;6.53;3.42;;;;;;;19.02;47.87;97196.94;5012890;28;20036;-30
2022/05/09 06:57:53;;;;;;;6.15;3.53;;;;;;;19.17;47.58;97190.75;5012811;28;20021;-30
2022/05/09 07:00:22;;;;;;;6.13;3.30;;;;;;;19.04;47.71;97201.94;5013038;28;20068;-30
2022/05/09 07:02:48;;;;;;;7.05;3.65;;;;;;;19.06;47.59;97195.97;5013201;28;20026;-31
2022/05/09 07:05:16;;;;;;;7.40;4.15;;;;;;;18.94;48.14;97192.19;5013176;28;20018;-31
2022/05/09 07:07:43;;;;;;;7.57;3.70;;;;;;;19.12;47.64;97194.13;5012609;28;20040;-30
2022/05/09 07:10:10;;;;;;;7.15;3.30;;;;;;;19.16;47.51;97189.25;5015024;28;20091;-30
2022/05/09 07:12:50;;;;;;;9.13;3.38;;;;;;;19.19;47.40;97202.81;5014723;28;20559;-32
2022/05/09 07:15:28;;;;;;;7.32;3.17;;;;;;;19.15;47.72;97209.72;5015017;28;20535;-30
2022/05/09 07:17:54;;;;;;;8.60;4.22;;;;;;;19.17;47.78;97201.72;5014812;28;20032;-30
2022/05/09 07:20:22;;;;;;;6.60;3.42;;;;;;;19.11;47.75;97207.13;5014688;28;20022;-30
2022/05/09 07:22:50;;;;;;;7.15;3.42;;;;;;;18.91;48.28;97202.16;5014700;28;20022;-31
2022/05/09 07:25:16;;;;;;;10.02;4.13;;;;;;;18.93;48.52;97205.19;5014629;28;20029;-31
2022/05/09 07:27:42;;;;;;;9.50;3.70;;;;;;;18.78;48.78;97198.06;5014496;28;20108;-30
2022/05/09 07:30:14;;;;;;;10.52;4.07;;;;;;;18.60;49.17;97209.84;5014899;28;20025;-30
2022/05/09 07:32:40;;;;;;;7.07;3.55;;;;;;;18.91;48.51;97206.91;5014568;28;20030;-30
2022/05/09 07:35:07;;;;;;;9.68;3.78;;;;;;;19.06;48.09;97207.75;5014513;28;20037;-31
2022/05/09 07:37:33;;;;;;;6.00;3.40;;;;;;;18.41;49.35;97211.06;5014485;28;20109;-30
2022/05/09 07:39:59;;;;;;;7.22;3.50;;;;;;;18.49;49.07;97209.53;5014190;28;20108;-30
2022/05/09 07:42:24;;;;;;;7.82;3.53;;;;;;;18.60;49.23;97212.59;5014305;28;20034;-30
2022/05/09 07:44:52;;;;;;;7.05;3.60;;;;;;;18.92;48.46;97208.38;5014527;28;20025;-30
2022/05/09 07:47:18;;;;;;;7.38;3.60;;;;;;;18.98;48.47;97212.81;5046138;28;20160;-30
2022/05/09 07:49:45;;;;;;;6.13;3.55;;;;;;;19.11;48.06;97214.59;5014087;28;20052;-31
2022/05/09 07:52:11;;;;;;;7.85;3.90;;;;;;;19.09;48.08;97214.31;5013168;28;20092;-30
2022/05/09 07:54:37;;;;;;;11.50;3.60;;;;;;;18.77;48.40;97218.53;5013963;28;20373;-30
2022/05/09 07:57:03;;;;;;;9.98;3.58;;;;;;;18.92;48.19;97216.63;5014369;28;20036;-30
2022/05/09 07:59:29;;;;;;;7.15;3.22;;;;;;;18.74;48.56;97233.94;5013911;28;20029;-30
2022/05/09 08:01:55;;;;;;;23.88;12.05;;;;;;;18.45;49.60;97217.91;5014087;28;20404;-30
2022/05/09 08:04:21;;;;;;;14.95;7.22;;;;;;;18.88;48.62;97221.56;5013944;28;20025;-30
2022/05/09 08:06:47;;;;;;;10.57;6.18;;;;;;;19.07;48.16;97231.25;5013893;28;20072;-30
2022/05/09 08:09:12;;;;;;;17.20;7.03;;;;;;;19.10;47.92;97232.31;5013107;28;20026;-30
2022/05/09 08:11:38;;;;;;;15.00;7.78;;;;;;;19.09;48.05;97228.81;5013069;28;20025;-30
2022/05/09 08:14:04;;;;;;;10.18;5.65;;;;;;;18.95;48.07;97234.97;5045106;28;20025;-31
2022/05/09 08:16:30;;;;;;;7.85;4.15;;;;;;;18.67;48.14;97237.00;5045277;28;20551;-31
2022/05/09 08:18:56;;;;;;;10.85;5.43;;;;;;;19.09;47.91;97233.56;5013936;28;20018;-29
2022/05/09 08:21:22;;;;;;;16.17;9.30;;;;;;;19.26;47.45;97231.97;5013956;28;20050;-30
2022/05/09 08:23:50;;;;;;;19.35;8.32;;;;;;;19.28;47.47;97235.03;5013695;28;20117;-30
2022/05/09 08:26:16;;;;;;;14.82;7.88;;;;;;;19.32;47.56;97230.84;5013671;28;20028;-30
2022/05/09 08:28:42;;;;;;;14.57;8.10;;;;;;;19.21;47.73;97227.84;5013748;28;20026;-32
2022/05/09 08:31:08;;;;;;;16.02;8.95;;;;;;;19.29;47.39;97222.78;5014041;28;20022;-30
2022/05/09 08:33:33;;;;;;;11.25;7.45;;;;;;;19.36;47.26;97234.22;5045335;28;20392;-30
2022/05/09 08:36:02;;;;;;;12.98;8.48;;;;;;;19.33;47.25;97234.38;5013340;28;20480;-31
2022/05/09 08:38:27;;;;;;;10.63;5.22;;;;;;;19.21;47.35;97238.84;5013503;28;20105;-30
2022/05/09 08:41:01;;;;;;;10.98;7.15;;;;;;;19.30;47.19;97233.31;5013538;28;20100;-29
2022/05/09 08:43:59;;;;;;;13.50;7.40;;;;;;;19.35;47.20;97240.19;5013574;28;20091;-30
2022/05/09 08:46:39;;;;;;;15.25;6.82;;;;;;;19.26;46.89;97243.72;5013861;28;20096;-29
2022/05/09 08:49:40;;;;;;;13.40;7.35;;;;;;;19.37;47.07;97248.72;5013292;28;20050;-31
2022/05/09 08:52:23;;;;;;;9.40;5.95;;;;;;;19.30;47.15;97244.31;5006612;28;20447;-30
2022/05/09 08:54:50;;;;;;;8.23;6.30;;;;;;;19.35;47.18;97245.69;5013371;28;20444;-29
2022/05/09 08:57:22;;;;;;;16.17;6.60;;;;;;;19.36;47.08;97247.19;5045042;28;20029;-30
2022/05/09 09:00:25;;;;;;;10.10;5.78;;;;;;;19.36;47.01;97245.22;5013458;28;20112;-30
2022/05/09 09:02:53;;;;;;;10.50;6.95;;;;;;;19.37;46.85;97248.72;4972197;28;20162;-30
2022/05/09 09:05:23;;;;;;;9.32;6.45;;;;;;;19.36;46.87;97245.22;4972214;28;20497;-30
2022/05/09 09:08:15;;;;;;;12.55;6.32;;;;;;;19.43;46.56;97254.34;4968728;28;20043;-30
2022/05/09 09:10:55;;;;;;;9.68;6.38;;;;;;;19.42;46.54;97247.31;4969693;28;20034;-30
2022/05/09 09:13:22;;;;;;;12.55;6.05;;;;;;;19.45;46.54;97249.16;4972021;28;20030;-30
2022/05/09 09:16:02;;;;;;;8.50;5.65;;;;;;;19.36;46.53;97249.94;4972173;28;20082;-30
2022/05/09 09:18:44;;;;;;;9.73;5.70;;;;;;;19.49;46.41;97261.53;4972243;28;20038;-30
2022/05/09 09:21:22;;;;;;;9.93;5.60;;;;;;;19.46;46.13;97256.19;4974552;28;20044;-31
2022/05/09 09:24:13;;;;;;;8.50;5.63;;;;;;;19.53;46.05;97255.88;4976111;28;20134;-30
2022/05/09 09:26:46;;;;;;;7.05;4.57;;;;;;;19.49;46.16;97258.78;4975846;28;20023;-30
2022/05/09 09:29:23;;;;;;;12.18;5.57;;;;;;;19.48;46.10;97256.47;4975779;28;20026;-30
2022/05/09 09:31:58;;;;;;;7.47;5.30;;;;;;;19.52;46.04;97263.38;4975838;28;20568;-29
2022/05/09 09:34:35;;;;;;;8.93;4.55;;;;;;;19.54;45.87;97263.66;4975815;28;20054;-29
2022/05/09 09:37:08;;;;;;;12.57;4.88;;;;;;;19.47;45.96;97258.47;5000050;28;20570;-30
2022/05/09 09:39:34;;;;;;;9.00;5.03;;;;;;;19.52;46.11;97266.13;5015651;28;20542;-30
2022/05/09 09:41:59;;;;;;;7.90;4.40;;;;;;;19.56;45.73;97261.19;5014731;28;20029;-30
2022/05/09 09:44:27;;;;;;;7.63;4.50;;;;;;;19.56;45.58;97266.69;5015237;28;20022;-30
2022/05/09 09:47:19;;;;;;;7.30;4.50;;;;;;;19.53;45.47;97273.16;5016425;28;20033;-31
2022/05/09 09:49:48;;;;;;;6.78;4.25;;;;;;;19.53;45.57;97270.41;5016343;28;20485;-32
2022/05/09 09:52:31;;;;;;;7.55;3.75;;;;;;;19.46;45.34;97267.94;5048299;28;20026;-31
2022/05/09 09:55:06;;;;;;;8.15;4.00;;;;;;;19.50;45.32;97270.56;5016346;28;20026;-30
2022/05/09 09:57:37;;;;;;;5.10;3.55;;;;;;;19.50;45.23;97268.56;5016430;28;20030;-30
2022/05/09 10:00:23;;;;;;;5.28;3.25;;;;;;;19.55;44.98;97269.91;5015839;28;20052;-30
2022/05/09 10:02:51;;;;;;;9.80;4.10;;;;;;;19.62;44.96;97259.34;5013843;28;20050;-29
2022/05/09 10:05:20;;;;;;;8.00;3.70;;;;;;;19.61;45.12;97268.81;5045902;28;20033;-31
2022/05/09 10:07:47;;;;;;;5.90;3.53;;;;;;;19.62;44.63;97264.84;5013957;28;20112;-30
2022/05/09 10:10:23;;;;;;;7.50;3.38;;;;;;;19.59;44.65;97268.53;5013800;28;20084;-30
2022/05/09 10:12:52;;;;;;;5.78;3.53;;;;;;;19.62;44.50;97264.09;5013321;28;20041;-32
2022/05/09 10:15:34;;;;;;;5.53;3.53;;;;;;;19.67;44.24;97253.19;5013936;28;20044;-30
2022/05/09 10:18:17;;;;;;;7.13;3.27;;;;;;;19.59;44.29;97260.28;5014048;28;20029;-32
2022/05/09 10:20:43;;;;;;;6.28;3.65;;;;;;;19.63;44.43;97260.88;5013954;28;20029;-29
2022/05/09 10:26:31;;;;;;;5.70;2.95;;;;;;;19.68;44.10;97253.94;5013915;28;20438;-30
2022/05/09 10:28:59;;;;;;;7.20;2.90;;;;;;;19.72;43.94;97252.56;5013796;28;20099;-29
2022/05/09 10:31:53;;;;;;;4.20;2.70;;;;;;;19.73;44.03;97262.34;5013023;28;20030;-30
2022/05/09 10:34:22;;;;;;;4.43;2.70;;;;;;;19.66;43.67;97254.41;5010155;28;20378;-29
2022/05/09 10:36:54;;;;;;;5.07;2.55;;;;;;;19.49;43.53;97255.28;5014710;28;20169;-29
2022/05/09 10:39:28;;;;;;;10.25;3.53;;;;;;;19.35;43.00;97253.94;5014566;28;20038;-30
2022/05/09 10:41:59;;;;;;;7.47;2.50;;;;;;;19.55;43.10;97253.41;5015467;28;20033;-30
2022/05/09 10:44:42;;;;;;;5.05;2.22;;;;;;;19.63;42.79;97255.38;5015587;28;20029;-30
2022/05/09 10:47:15;;;;;;;6.47;2.53;;;;;;;19.78;42.73;97252.66;5015658;28;20476;-30
2022/05/09 10:49:41;;;;;;;4.28;2.47;;;;;;;19.77;42.68;97242.91;5015059;28;20076;-32
2022/05/09 10:52:27;;;;;;;7.35;3.15;;;;;;;19.79;42.49;97242.41;5015329;28;20060;-30
2022/05/09 10:55:04;;;;;;;5.88;2.22;;;;;;;19.87;42.57;97238.88;5015270;28;20033;-30
2022/05/09 10:57:37;;;;;;;3.75;2.50;;;;;;;19.86;42.79;97236.59;5015279;28;20026;-29
2022/05/09 11:00:34;;;;;;;;;;;;;;;19.85;42.85;97229.56;5015523;28;20494;-30
2022/05/09 11:03:37;;;;;;;6.28;2.78;;;;;;;19.81;42.65;97237.22;5003202;28;20276;-32
2022/05/09 11:06:17;;;;;;;5.28;2.83;;;;;;;19.85;42.58;97224.81;4974148;28;20389;-30
2022/05/09 11:08:58;;;;;;;4.80;2.50;;;;;;;19.93;42.82;97227.97;4974245;28;20123;-30
2022/05/09 11:11:35;;;;;;;5.90;2.60;;;;;;;19.95;42.53;97225.50;4973922;28;20118;-31
2022/05/09 11:14:28;;;;;;;8.00;2.83;;;;;;;19.89;42.73;97225.41;4973929;28;20035;-31
2022/05/09 11:17:31;;;;;;;6.63;2.85;;;;;;;19.91;42.72;97219.41;4973714;28;20026;-30
2022/05/09 11:20:20;;;;;;;6.05;2.70;;;;;;;19.95;42.68;97222.75;4972004;28;20087;-31
2022/05/09 11:23:11;;;;;;;6.60;2.55;;;;;;;19.90;42.86;97221.44;4957590;28;20027;-30
2022/05/09 11:25:55;;;;;;;8.13;3.00;;;;;;;19.93;43.11;97216.94;4973625;28;20037;-30
2022/05/09 11:28:33;;;;;;;10.40;3.33;;;;;;;19.97;43.08;97215.56;4973722;28;20551;-30
2022/05/09 11:31:13;;;;;;;5.82;2.88;;;;;;;19.94;43.34;97218.47;4973490;28;20038;-30
2022/05/09 11:34:18;;;;;;;7.32;3.17;;;;;;;19.93;43.32;97217.72;4973546;28;20151;-30
2022/05/09 11:37:05;;;;;;;12.77;4.28;;;;;;;19.95;43.39;97218.00;4915806;29;20039;-32
2022/05/09 11:39:55;;;;;;;12.68;4.95;;;;;;;19.96;43.42;97216.00;4927457;29;20174;-30
2022/05/09 11:45:52;;;;;;;10.88;4.47;;;;;;;19.91;43.60;97220.16;4952107;29;20147;-30
2022/05/09 11:48:51;;;;;;;9.65;5.07;;;;;;;19.86;43.94;97214.56;4951415;29;20038;-29
2022/05/09 11:51:31;;;;;;;11.90;4.72;;;;;;;19.86;43.58;97215.31;4951220;28;20585;-30
2022/05/09 11:54:00;;;;;;;10.88;5.28;;;;;;;19.93;43.39;97211.44;4932369;29;20036;-31
2022/05/09 11:56:28;;;;;;;12.00;5.13;;;;;;;19.85;43.29;97213.03;4932054;29;20175;-32